Airfield :
LOGIN :

Register | Disclaimer

   EN    FR    IT 

 










Legend :    VFR   Marginal VFR   IFR   Intensive IFR   Very Intensive IFR
Visi :
Ceiling :
>= 8 km
>= 3000ft
5 to 8 km
1000 to 3000 ft
1500m to 5 km
500 to 1000 ft
800 to 1500m
200 to 500 ft
< 800m
< 200 ft
Symbols :   Thunderstorms  Fog  Heavy snow  Heavy precipitations  Wind > 20 kt
SIGMETs :     Misc.  Thunderstorms  Icing  Turbulence  Mountain Waves  Volcanic Ashes







- Airport Elevation : 1084 ft
- IATA code : EPL
- Download approach charts


LFSG - Épinal-Mirecourt

CURRENT METAR :
  • 180600Z AUTO 04011KT CAVOK 00/M03 Q1022

EXPIRED METARs :
  • 180530Z AUTO 03011KT CAVOK M00/M03 Q1021
  • 180500Z AUTO 03006KT 360V060 CAVOK 00/M03 Q1022
  • 180430Z AUTO 02006KT CAVOK 00/M03 Q1022
  • 180400Z AUTO 36005KT 340V040 CAVOK 01/M03 Q1022
  • 180330Z AUTO VRB02KT CAVOK 01/M03 Q1022

TAF N/A
No reported NOTAMs for that airfield.



MET'MAP, your aeronautical weather chart ! - Copyright ORBIFLY December 2007 - Disclaimer

ORBIFLY MET'MAP TEAM :

Programming & Development : Alexandra Zaïnal
Concept & Development : Baudouin d'Aumeries
Co-Development & Prog : Marc-Olivier Méhu
Technical & hardware support : Manuel Goepfert

Contact : metmap@orbifly.com




SOURCES & CREDITS :

   NOAA